ěÝzenÝ letovÚho provozu ╚eskÚ republiky
Letiste: LKNA Aktualizace: 07.04.2020 03:30:25  UTC
 METAR LKNA 07.04. 03:30 ...
METAR LKNA 070330Z 10007KT CAVOK 06/M06 Q1030 RMK BLU=
 TAF LKNA 06.04. 23:00 ...
TAF LKNA 062300Z 0700/0800 12008KT CAVOK      TEMPO 0708/0714 14017KT      BECMG 0718/0720 10005KT=